Time;durP1;ratioP1;P1;durP2;ratioP2;P2;SDS_P1;SDS_P2;PMS_P1;PMS_P2;Temp;Humidity;BMP_temperature;BMP_pressure;BME280_temperature;BME280_humidity;BME280_pressure;Samples;Min_cycle;Max_cycle;Signal;HPM_P1;HPM_P2
2022/07/14 00:00:37;;;;;;;7.60;0.98;;;22.60;74.10;;;;;;5074482;28;20035;-80
2022/07/14 00:03:03;;;;;;;9.60;1.20;;;22.50;74.60;;;;;;5074481;28;20467;-80
2022/07/14 00:05:29;;;;;;;10.20;1.75;;;22.40;74.70;;;;;;5074344;28;20025;-80
2022/07/14 00:07:54;;;;;;;12.00;1.52;;;22.30;74.90;;;;;;5074711;28;20074;-80
2022/07/14 00:10:20;;;;;;;9.15;1.50;;;22.10;75.20;;;;;;5074314;28;20531;-80
2022/07/14 00:12:46;;;;;;;8.93;1.65;;;22.00;75.60;;;;;;5074369;28;20388;-80
2022/07/14 00:15:11;;;;;;;9.18;1.70;;;22.00;75.90;;;;;;5074382;28;20016;-80
2022/07/14 00:17:37;;;;;;;8.98;1.55;;;21.90;76.50;;;;;;5083317;28;20040;-79
2022/07/14 00:20:04;;;;;;;7.65;1.15;;;21.70;76.20;;;;;;5093029;28;20020;-79
2022/07/14 00:22:29;;;;;;;8.48;1.58;;;21.60;76.50;;;;;;5091228;28;20032;-80
2022/07/14 00:24:55;;;;;;;13.45;1.92;;;21.60;76.80;;;;;;5074027;28;20494;-80
2022/07/14 00:27:21;;;;;;;7.90;1.52;;;21.40;77.10;;;;;;5074204;28;20139;-80
2022/07/14 00:29:47;;;;;;;8.13;1.38;;;21.30;77.60;;;;;;5073983;28;20029;-81
2022/07/14 00:32:12;;;;;;;11.63;1.63;;;21.20;77.90;;;;;;5073875;28;20082;-80
2022/07/14 00:34:38;;;;;;;13.02;1.98;;;21.30;78.10;;;;;;5074129;28;20070;-80
2022/07/14 00:37:04;;;;;;;13.30;1.92;;;21.20;77.90;;;;;;5074036;28;20074;-81
2022/07/14 00:39:54;;;;;;;15.80;1.83;;;21.10;78.20;;;;;;5074005;28;20024;-81
2022/07/14 00:42:38;;;;;;;12.52;1.70;;;20.90;78.60;;;;;;5073654;28;20081;-80
2022/07/14 00:45:09;;;;;;;9.68;1.75;;;21.00;78.90;;;;;;5073806;28;20074;-81
2022/07/14 00:47:35;;;;;;;13.48;2.20;;;20.90;78.80;;;;;;5074621;28;20421;-81
2022/07/14 00:50:01;;;;;;;10.05;1.42;;;21.00;78.70;;;;;;5073516;28;20068;-80
2022/07/14 00:52:28;;;;;;;5.53;1.30;;;20.90;78.80;;;;;;5073729;28;20036;-81
2022/07/14 00:54:55;;;;;;;8.82;1.38;;;20.90;78.90;;;;;;5073754;28;20031;-81
2022/07/14 00:57:22;;;;;;;10.50;1.80;;;20.80;78.90;;;;;;5073816;28;20028;-81
2022/07/14 00:59:48;;;;;;;10.38;1.45;;;20.80;79.20;;;;;;5073355;28;20078;-81
2022/07/14 01:02:14;;;;;;;8.52;1.27;;;20.80;78.80;;;;;;5073760;28;20016;-81
2022/07/14 01:04:40;;;;;;;10.65;1.52;;;20.70;79.30;;;;;;5073871;28;20028;-81
2022/07/14 01:07:06;;;;;;;7.00;1.10;;;20.70;79.40;;;;;;5075054;28;20433;-81
2022/07/14 01:09:31;;;;;;;9.50;1.55;;;20.90;79.50;;;;;;5078084;28;20516;-80
2022/07/14 01:11:57;;;;;;;10.38;1.35;;;21.00;78.90;;;;;;5078269;28;20089;-81
2022/07/14 01:14:23;;;;;;;7.47;1.30;;;21.00;78.40;;;;;;5077665;28;20016;-80
2022/07/14 01:16:55;;;;;;;8.45;1.65;;;21.10;78.60;;;;;;5093494;28;20025;-79
2022/07/14 01:19:22;;;;;;;13.45;1.60;;;21.10;78.00;;;;;;5096109;28;20001;-81
2022/07/14 01:21:52;;;;;;;11.15;1.50;;;20.90;78.80;;;;;;5081965;28;20028;-81
2022/07/14 01:24:18;;;;;;;12.02;1.70;;;21.00;78.60;;;;;;5077272;28;20021;-81
2022/07/14 01:26:44;;;;;;;7.15;1.23;;;20.90;78.30;;;;;;5076840;28;20365;-81
2022/07/14 01:29:09;;;;;;;10.30;1.60;;;20.90;78.40;;;;;;5076949;28;20025;-80
2022/07/14 01:31:35;;;;;;;7.47;1.63;;;20.90;78.40;;;;;;5075798;28;20043;-81
2022/07/14 01:34:00;;;;;;;5.50;1.13;;;21.00;78.70;;;;;;5076812;28;20054;-81
2022/07/14 01:36:26;;;;;;;7.43;1.40;;;21.10;78.60;;;;;;5077029;28;20033;-80
2022/07/14 01:38:52;;;;;;;7.00;1.15;;;21.10;78.10;;;;;;5076856;28;20162;-81
2022/07/14 01:41:20;;;;;;;6.47;1.00;;;21.20;78.00;;;;;;5076444;28;20089;-81
2022/07/14 01:43:45;;;;;;;9.63;2.05;;;21.30;77.90;;;;;;5076691;28;20383;-80
2022/07/14 01:46:11;;;;;;;5.57;1.23;;;21.30;77.10;;;;;;5076821;28;20021;-81
2022/07/14 01:48:36;;;;;;;6.05;1.15;;;21.40;77.00;;;;;;5076798;28;20036;-81
2022/07/14 01:51:02;;;;;;;7.60;1.20;;;21.40;76.70;;;;;;5076453;28;20051;-80
2022/07/14 01:53:29;;;;;;;11.57;1.42;;;21.30;76.60;;;;;;5076678;28;20017;-81
2022/07/14 01:55:54;;;;;;;6.68;1.20;;;21.40;76.50;;;;;;5076536;28;20029;-81
2022/07/14 01:58:20;;;;;;;9.18;1.33;;;21.40;76.60;;;;;;5076984;28;20422;-81
2022/07/14 02:01:39;;;;;;;8.05;1.60;;;21.40;76.50;;;;;;5076231;28;20464;-80
2022/07/14 02:03:35;;;;;;;10.35;1.70;;;21.40;76.30;;;;;;5076048;28;20029;-80
2022/07/14 02:06:01;;;;;;;9.75;1.50;;;21.30;76.40;;;;;;5076521;28;20078;-80
2022/07/14 02:08:27;;;;;;;9.63;2.00;;;21.10;76.60;;;;;;5076525;28;20044;-80
2022/07/14 02:13:37;;;;;;;6.30;1.15;;;20.80;77.50;;;;;;5080296;28;20082;-80
2022/07/14 02:16:03;;;;;;;9.55;1.67;;;20.90;77.80;;;;;;5076397;28;20017;-80
2022/07/14 02:18:28;;;;;;;8.80;1.00;;;20.90;78.20;;;;;;5075544;28;20020;-80
2022/07/14 02:20:54;;;;;;;6.93;1.30;;;20.90;77.70;;;;;;5076028;28;20028;-80
2022/07/14 02:23:20;;;;;;;6.70;1.10;;;20.90;77.60;;;;;;5076060;28;20028;-80
2022/07/14 02:25:46;;;;;;;7.07;1.08;;;20.90;77.50;;;;;;5075899;28;20033;-81
2022/07/14 02:28:12;;;;;;;7.82;1.10;;;21.00;77.70;;;;;;5075588;28;20029;-80
2022/07/14 02:30:38;;;;;;;5.70;1.20;;;21.10;77.60;;;;;;5075870;28;20031;-81
2022/07/14 02:33:04;;;;;;;7.57;1.23;;;21.20;77.60;;;;;;5076099;28;20032;-80
2022/07/14 02:35:29;;;;;;;8.25;1.42;;;21.20;77.30;;;;;;5076000;28;20016;-80
2022/07/14 02:37:55;;;;;;;11.25;1.50;;;21.10;77.00;;;;;;5075805;28;20066;-80
2022/07/14 02:40:21;;;;;;;11.23;1.35;;;21.00;77.00;;;;;;5075764;28;20020;-80
2022/07/14 02:42:46;;;;;;;8.63;1.33;;;21.00;77.20;;;;;;5075862;28;20044;-80
2022/07/14 02:45:12;;;;;;;9.48;1.45;;;21.00;76.90;;;;;;5075766;28;20058;-80
2022/07/14 02:47:38;;;;;;;7.97;1.38;;;21.00;76.90;;;;;;5075498;28;20044;-80
2022/07/14 02:50:05;;;;;;;8.68;1.48;;;21.00;77.00;;;;;;5075427;28;20097;-80
2022/07/14 02:52:30;;;;;;;11.45;1.55;;;21.00;77.20;;;;;;5075121;28;20111;-80
2022/07/14 02:54:56;;;;;;;7.72;1.30;;;21.00;77.00;;;;;;5075643;28;20059;-80
2022/07/14 02:57:22;;;;;;;9.57;1.60;;;21.10;77.20;;;;;;5075503;28;20084;-80
2022/07/14 02:59:47;;;;;;;8.85;1.58;;;21.00;76.80;;;;;;5075545;28;20027;-80
2022/07/14 03:02:13;;;;;;;9.25;1.88;;;21.00;76.90;;;;;;5075469;28;20020;-80
2022/07/14 03:04:39;;;;;;;15.07;1.77;;;20.90;77.00;;;;;;5075544;28;20028;-80
2022/07/14 03:07:05;;;;;;;12.68;1.77;;;20.80;77.00;;;;;;5077119;28;20024;-80
2022/07/14 03:09:30;;;;;;;8.73;1.42;;;20.80;77.00;;;;;;5092553;28;20034;-80
2022/07/14 03:11:57;;;;;;;7.43;1.30;;;20.80;77.00;;;;;;5086002;28;20115;-80
2022/07/14 03:14:22;;;;;;;7.50;1.33;;;20.80;76.90;;;;;;5075442;28;20108;-80
2022/07/14 03:16:48;;;;;;;7.60;1.23;;;20.80;76.90;;;;;;5075003;28;20044;-81
2022/07/14 03:19:13;;;;;;;8.93;1.90;;;20.80;76.80;;;;;;5075371;28;20474;-80
2022/07/14 03:21:39;;;;;;;14.65;1.70;;;20.80;76.70;;;;;;5074982;28;20024;-80
2022/07/14 03:24:06;;;;;;;9.65;1.92;;;20.70;76.70;;;;;;5074871;28;20060;-81
2022/07/14 03:26:32;;;;;;;6.10;1.15;;;20.60;77.10;;;;;;5075121;28;20099;-81
2022/07/14 03:28:57;;;;;;;7.60;1.05;;;20.50;77.10;;;;;;5074598;28;20441;-80
2022/07/14 03:31:23;;;;;;;6.05;1.38;;;20.40;77.50;;;;;;5073775;28;20068;-80
2022/07/14 03:33:49;;;;;;;10.48;1.30;;;20.40;77.80;;;;;;5074566;28;20480;-80
2022/07/14 03:36:15;;;;;;;9.45;1.73;;;20.30;77.50;;;;;;5074410;28;20028;-80
2022/07/14 03:38:40;;;;;;;11.73;1.83;;;20.10;77.90;;;;;;5074603;28;20028;-80
2022/07/14 03:41:07;;;;;;;6.97;1.00;;;20.10;78.10;;;;;;5074558;28;20070;-80
2022/07/14 03:43:33;;;;;;;7.70;1.35;;;20.10;78.70;;;;;;5074540;28;20020;-80
2022/07/14 03:45:59;;;;;;;10.57;1.35;;;20.20;78.20;;;;;;5074436;28;20032;-80
2022/07/14 03:48:24;;;;;;;8.75;1.20;;;20.00;78.30;;;;;;5074728;28;20029;-80
2022/07/14 03:50:50;;;;;;;9.98;1.42;;;19.80;79.00;;;;;;5073830;28;20393;-80
2022/07/14 03:53:16;;;;;;;12.40;1.70;;;19.80;79.50;;;;;;5074448;28;20032;-80
2022/07/14 03:55:45;;;;;;;9.10;1.60;;;19.80;79.60;;;;;;5074316;28;20033;-80
2022/07/14 03:58:11;;;;;;;11.70;1.55;;;19.80;79.60;;;;;;5074410;28;20051;-80
2022/07/14 04:00:36;;;;;;;9.45;1.98;;;19.70;79.80;;;;;;5073974;28;20463;-80
2022/07/14 04:03:02;;;;;;;9.25;1.35;;;19.60;80.10;;;;;;5076777;28;20105;-79
2022/07/14 04:05:28;;;;;;;6.68;1.30;;;19.50;80.40;;;;;;5091599;28;20046;-80
2022/07/14 04:07:53;;;;;;;9.32;1.77;;;19.50;80.80;;;;;;5087643;28;20024;-80
2022/07/14 04:10:19;;;;;;;11.55;1.67;;;19.60;80.60;;;;;;5074017;28;20031;-80
2022/07/14 04:12:45;;;;;;;10.57;1.80;;;19.50;80.50;;;;;;5074317;28;20028;-80
2022/07/14 04:15:11;;;;;;;8.90;1.70;;;19.50;80.70;;;;;;5074171;28;20021;-80
2022/07/14 04:17:37;;;;;;;7.32;1.00;;;19.60;80.60;;;;;;5074193;28;20028;-80
2022/07/14 04:20:03;;;;;;;10.38;1.38;;;19.70;80.40;;;;;;5074190;28;20043;-80
2022/07/14 04:22:29;;;;;;;7.18;1.52;;;19.70;80.40;;;;;;5073431;28;20070;-80
2022/07/14 04:24:55;;;;;;;6.00;1.25;;;19.70;79.90;;;;;;5073881;28;20032;-80
2022/07/14 04:27:21;;;;;;;5.57;1.13;;;19.80;80.20;;;;;;5073764;28;20467;-80
2022/07/14 04:29:46;;;;;;;6.53;1.38;;;19.80;80.10;;;;;;5073584;28;20067;-80
2022/07/14 04:32:12;;;;;;;8.85;0.88;;;19.90;80.10;;;;;;5073497;28;20040;-80
2022/07/14 04:34:38;;;;;;;7.63;1.10;;;20.00;79.70;;;;;;5073707;28;20070;-80
2022/07/14 04:37:04;;;;;;;8.20;1.20;;;20.10;79.90;;;;;;5073421;28;20032;-80
2022/07/14 04:39:30;;;;;;;7.28;0.90;;;20.00;79.30;;;;;;5073748;28;20107;-80
2022/07/14 04:41:56;;;;;;;9.52;1.05;;;20.10;79.60;;;;;;5072893;28;20075;-80
2022/07/14 04:44:21;;;;;;;7.80;1.10;;;20.10;79.30;;;;;;5073464;28;20021;-80
2022/07/14 04:46:47;;;;;;;8.10;0.95;;;20.10;80.30;;;;;;5073572;28;20495;-80
2022/07/14 04:52:02;;;;;;;9.70;1.48;;;20.20;79.30;;;;;;5073346;28;20415;-80
2022/07/14 04:54:33;;;;;;;6.15;1.15;;;20.10;78.90;;;;;;5073798;28;20049;-79
2022/07/14 04:57:00;;;;;;;10.30;1.20;;;20.10;79.30;;;;;;5073511;28;20024;-78
2022/07/14 04:59:27;;;;;;;4.85;0.88;;;20.10;79.60;;;;;;5073669;28;20086;-78
2022/07/14 05:01:53;;;;;;;7.18;1.15;;;20.20;79.20;;;;;;5090587;28;20024;-78
2022/07/14 05:04:19;;;;;;;12.85;1.70;;;20.20;79.10;;;;;;5085693;28;20058;-79
2022/07/14 05:06:46;;;;;;;6.55;1.00;;;20.20;78.80;;;;;;5073438;28;20372;-79
2022/07/14 05:09:13;;;;;;;8.45;0.98;;;20.10;78.90;;;;;;5073301;28;20020;-80
2022/07/14 05:11:40;;;;;;;5.13;1.00;;;20.20;79.20;;;;;;5072952;28;20032;-79
2022/07/14 05:14:05;;;;;;;8.52;1.10;;;20.30;79.40;;;;;;5073035;28;20024;-80
2022/07/14 05:16:31;;;;;;;10.25;1.52;;;20.40;78.90;;;;;;5073064;28;20027;-80
2022/07/14 05:18:57;;;;;;;7.88;1.33;;;20.20;78.40;;;;;;5072877;28;20467;-79
2022/07/14 05:21:24;;;;;;;4.88;1.08;;;20.00;79.20;;;;;;5073312;28;20029;-80
2022/07/14 05:23:49;;;;;;;10.57;1.40;;;20.00;79.20;;;;;;5072899;28;20107;-79
2022/07/14 05:26:17;;;;;;;9.48;1.23;;;19.90;79.10;;;;;;5073169;28;20059;-80
2022/07/14 05:28:42;;;;;;;6.82;0.90;;;20.00;79.60;;;;;;5072875;28;20078;-79
2022/07/14 05:31:08;;;;;;;10.70;1.45;;;20.10;79.60;;;;;;5073101;28;20040;-79
2022/07/14 05:33:34;;;;;;;14.93;1.60;;;20.20;79.00;;;;;;5072982;28;20429;-80
2022/07/14 05:36:00;;;;;;;9.30;1.33;;;20.10;79.00;;;;;;5073231;28;20360;-80
2022/07/14 05:38:27;;;;;;;5.43;0.90;;;20.00;79.50;;;;;;5072980;28;20464;-79
2022/07/14 05:40:52;;;;;;;6.40;1.00;;;19.90;80.00;;;;;;5072823;28;20392;-79
2022/07/14 05:43:19;;;;;;;9.10;1.58;;;20.10;80.20;;;;;;5072969;28;20025;-79
2022/07/14 05:45:45;;;;;;;7.72;1.10;;;20.10;79.20;;;;;;5072718;28;20113;-79
2022/07/14 05:48:11;;;;;;;9.45;1.15;;;20.20;79.40;;;;;;5072720;28;20037;-80
2022/07/14 05:50:36;;;;;;;8.63;1.20;;;20.20;78.60;;;;;;5072326;28;20097;-80
2022/07/14 05:53:02;;;;;;;12.55;1.92;;;20.00;78.90;;;;;;5072423;28;20033;-80
2022/07/14 05:55:28;;;;;;;10.30;1.80;;;19.80;79.40;;;;;;5075260;28;20468;-80
2022/07/14 05:57:53;;;;;;;10.60;1.63;;;19.70;79.80;;;;;;5076132;28;20112;-80
2022/07/14 06:00:19;;;;;;;13.20;1.55;;;19.60;80.00;;;;;;5076080;28;20044;-80
2022/07/14 06:02:45;;;;;;;10.23;1.55;;;19.40;80.60;;;;;;5076045;28;20073;-79
2022/07/14 06:05:11;;;;;;;12.70;1.48;;;19.30;81.00;;;;;;5076265;28;20032;-80
2022/07/14 06:07:37;;;;;;;12.55;1.63;;;19.10;81.30;;;;;;5076103;28;20122;-80
2022/07/14 06:10:04;;;;;;;10.80;1.58;;;19.10;81.80;;;;;;5076044;28;20045;-80
2022/07/14 06:12:29;;;;;;;12.38;1.60;;;19.10;82.00;;;;;;5075672;28;20083;-80
2022/07/14 06:14:55;;;;;;;11.93;1.58;;;19.20;82.00;;;;;;5076051;28;20384;-80
2022/07/14 06:17:21;;;;;;;12.85;1.33;;;19.30;81.70;;;;;;5075520;28;20353;-80
2022/07/14 06:19:46;;;;;;;11.75;1.58;;;19.50;81.40;;;;;;5075608;28;20035;-80
2022/07/14 06:22:12;;;;;;;10.43;1.17;;;19.50;81.50;;;;;;5075451;28;20031;-80
2022/07/14 06:24:38;;;;;;;19.52;2.10;;;19.40;81.50;;;;;;5075764;28;20021;-80
2022/07/14 06:27:04;;;;;;;15.60;2.00;;;19.40;81.20;;;;;;5075253;28;20028;-79
2022/07/14 06:29:30;;;;;;;14.98;1.85;;;19.30;81.60;;;;;;5075448;28;20033;-80
2022/07/14 06:31:55;;;;;;;8.55;1.95;;;19.20;82.00;;;;;;5074693;28;20527;-80
2022/07/14 06:34:24;;;;;;;16.85;2.03;;;19.20;81.70;;;;;;5075483;28;20024;-79
2022/07/14 06:36:50;;;;;;;13.23;1.80;;;19.20;82.30;;;;;;5074980;28;20551;-80
2022/07/14 06:39:16;;;;;;;12.88;2.25;;;19.30;82.50;;;;;;5075503;28;20147;-80
2022/07/14 06:41:42;;;;;;;10.38;2.15;;;19.50;81.70;;;;;;5075048;28;20028;-80
2022/07/14 06:44:08;;;;;;;11.88;1.35;;;19.60;80.70;;;;;;5075086;28;20021;-80
2022/07/14 06:46:34;;;;;;;13.27;1.30;;;19.60;80.50;;;;;;5075404;28;20025;-80
2022/07/14 06:48:59;;;;;;;8.52;1.38;;;19.60;80.80;;;;;;5075304;28;20032;-79
2022/07/14 06:51:26;;;;;;;12.63;1.90;;;19.50;82.00;;;;;;5074836;28;20442;-80
2022/07/14 06:53:52;;;;;;;11.75;1.35;;;19.50;81.80;;;;;;5074939;28;20028;-80
2022/07/14 06:56:18;;;;;;;11.15;1.25;;;19.70;81.80;;;;;;5074885;28;20021;-80
2022/07/14 06:58:44;;;;;;;9.68;1.20;;;19.70;82.10;;;;;;5074878;28;20153;-80
2022/07/14 07:01:09;;;;;;;10.02;1.70;;;19.80;81.90;;;;;;5074789;28;20024;-80
2022/07/14 07:03:36;;;;;;;11.93;2.20;;;19.80;80.90;;;;;;5074781;28;20028;-80
2022/07/14 07:08:45;;;;;;;12.57;1.63;;;19.80;81.40;;;;;;5074795;28;20036;-80
2022/07/14 07:11:11;;;;;;;8.15;0.80;;;19.90;80.80;;;;;;5074991;28;20032;-80
2022/07/14 07:13:37;;;;;;;9.00;1.02;;;19.90;80.60;;;;;;5074789;28;20379;-80
2022/07/14 07:16:07;;;;;;;8.85;0.90;;;20.00;80.60;;;;;;5074804;28;20032;-80
2022/07/14 07:18:34;;;;;;;7.03;0.98;;;20.10;79.40;;;;;;5074694;28;20076;-80
2022/07/14 07:20:59;;;;;;;5.85;1.02;;;20.20;79.50;;;;;;5074510;28;20460;-80
2022/07/14 07:23:25;;;;;;;9.43;1.27;;;20.40;79.10;;;;;;5074324;28;20093;-80
2022/07/14 07:25:52;;;;;;;8.38;1.05;;;20.60;79.00;;;;;;5074568;28;20021;-80
2022/07/14 07:28:18;;;;;;;6.35;1.10;;;20.70;78.70;;;;;;5074510;28;20025;-80
2022/07/14 07:30:44;;;;;;;12.93;1.00;;;20.90;77.60;;;;;;5074498;28;20017;-79
2022/07/14 07:33:12;;;;;;;6.28;0.75;;;20.80;76.70;;;;;;5074598;28;20115;-80
2022/07/14 07:35:39;;;;;;;6.20;0.50;;;20.90;77.50;;;;;;5074269;28;20031;-79
2022/07/14 07:38:05;;;;;;;5.95;1.65;;;21.00;77.80;;;;;;5074472;28;20479;-80
2022/07/14 07:40:30;;;;;;;9.25;1.08;;;21.20;77.20;;;;;;5074120;28;20031;-80
2022/07/14 07:42:56;;;;;;;8.40;0.98;;;21.30;75.90;;;;;;5074234;28;20094;-80
2022/07/14 07:45:22;;;;;;;5.65;0.82;;;21.30;75.90;;;;;;5073992;28;20027;-80
2022/07/14 07:47:48;;;;;;;9.68;0.93;;;21.40;76.10;;;;;;5074066;28;20051;-80
2022/07/14 07:50:13;;;;;;;3.70;0.40;;;21.70;74.30;;;;;;5073534;28;20045;-79
2022/07/14 07:52:39;;;;;;;6.57;0.93;;;21.90;73.70;;;;;;5073926;28;20094;-79
2022/07/14 07:55:09;;;;;;;8.80;0.52;;;22.00;73.70;;;;;;5074125;28;20451;-80
2022/07/14 07:57:36;;;;;;;16.80;2.40;;;22.10;72.90;;;;;;5073964;28;20115;-80
2022/07/14 08:00:06;;;;;;;11.07;1.20;;;22.10;73.40;;;;;;5073618;28;20037;-80
2022/07/14 08:02:32;;;;;;;10.68;1.35;;;22.10;71.80;;;;;;5073829;28;20074;-80
2022/07/14 08:04:57;;;;;;;8.07;1.00;;;22.20;72.80;;;;;;5073513;28;20032;-80
2022/07/14 08:07:23;;;;;;;8.82;0.88;;;22.30;73.20;;;;;;5073694;28;20024;-80
2022/07/14 08:09:49;;;;;;;3.90;0.70;;;22.30;72.10;;;;;;5074001;28;20043;-80
2022/07/14 08:12:14;;;;;;;5.20;0.60;;;22.30;72.30;;;;;;5073879;28;20036;-80
2022/07/14 08:14:50;;;;;;;4.50;0.60;;;22.50;71.70;;;;;;5073356;28;20020;-80
2022/07/14 08:17:21;;;;;;;5.53;0.80;;;22.50;71.50;;;;;;5073187;28;20028;-80
2022/07/14 08:19:48;;;;;;;5.28;0.80;;;22.70;70.70;;;;;;5073419;28;20023;-80
2022/07/14 08:22:14;;;;;;;5.70;0.60;;;22.80;70.70;;;;;;5073416;28;20028;-80
2022/07/14 08:24:40;;;;;;;3.00;0.50;;;22.70;69.80;;;;;;5073468;28;20020;-80
2022/07/14 08:27:06;;;;;;;7.93;0.80;;;22.70;70.10;;;;;;5073499;28;20030;-79
2022/07/14 08:29:32;;;;;;;6.28;0.80;;;22.80;68.70;;;;;;5073569;28;20021;-79
2022/07/14 08:31:57;;;;;;;4.88;0.70;;;22.80;69.30;;;;;;5073473;28;20086;-79
2022/07/14 08:34:23;;;;;;;5.82;0.73;;;22.90;69.60;;;;;;5073220;28;20555;-79
2022/07/14 08:36:48;;;;;;;6.13;0.68;;;22.90;67.40;;;;;;5073409;28;20131;-79
2022/07/14 08:39:15;;;;;;;3.83;0.55;;;23.00;67.10;;;;;;5073477;28;20024;-79
2022/07/14 08:41:42;;;;;;;7.72;0.60;;;23.10;67.00;;;;;;5073427;28;20039;-79
2022/07/14 08:44:08;;;;;;;5.78;0.60;;;23.20;67.20;;;;;;5073233;28;20391;-79
2022/07/14 08:46:36;;;;;;;7.25;0.65;;;23.40;67.00;;;;;;5073053;28;20032;-79
2022/07/14 08:49:05;;;;;;;6.38;0.80;;;23.30;66.20;;;;;;5073113;28;20030;-79
2022/07/14 08:51:36;;;;;;;7.15;0.65;;;23.10;67.00;;;;;;5072843;28;20186;-79
2022/07/14 08:54:02;;;;;;;5.38;0.63;;;23.20;67.20;;;;;;5073410;28;20024;-79
2022/07/14 08:56:29;;;;;;;6.20;0.95;;;23.40;66.20;;;;;;5072925;28;20025;-79
2022/07/14 08:58:55;;;;;;;6.40;0.47;;;23.50;65.70;;;;;;5072895;28;20487;-79
2022/07/14 09:01:21;;;;;;;4.72;0.60;;;23.70;65.50;;;;;;5073089;28;20375;-79
2022/07/14 09:03:49;;;;;;;5.45;0.68;;;23.70;64.40;;;;;;5073133;28;20470;-79
2022/07/14 09:06:42;;;;;;;4.72;0.57;;;23.70;63.50;;;;;;5073312;28;20024;-79
2022/07/14 09:09:08;;;;;;;6.57;0.80;;;23.70;63.10;;;;;;5072921;28;20025;-79
2022/07/14 09:11:34;;;;;;;3.63;0.50;;;23.70;63.30;;;;;;5074003;28;20116;-78
2022/07/14 09:14:10;;;;;;;3.53;0.70;;;23.90;63.60;;;;;;5075977;28;20044;-80
2022/07/14 09:16:36;;;;;;;4.75;0.60;;;24.20;62.30;;;;;;5076466;28;20047;-79
2022/07/14 09:19:13;;;;;;;4.53;0.47;;;24.30;62.80;;;;;;5077072;28;20020;-79
2022/07/14 09:21:43;;;;;;;6.13;0.85;;;24.50;62.90;;;;;;5076244;28;20025;-79
2022/07/14 09:24:09;;;;;;;4.80;0.80;;;24.60;61.70;;;;;;5073766;28;20059;-79
2022/07/14 09:26:50;;;;;;;5.68;0.68;;;24.60;61.70;;;;;;5073602;28;20066;-79
2022/07/14 09:29:20;;;;;;;4.63;1.05;;;24.70;61.50;;;;;;5077472;28;20042;-80
2022/07/14 09:31:47;;;;;;;10.20;1.48;;;24.90;60.50;;;;;;5079853;28;20033;-79
2022/07/14 09:34:27;;;;;;;6.65;0.73;;;25.00;60.70;;;;;;5080332;28;20107;-79
2022/07/14 09:37:12;;;;;;;3.70;0.70;;;25.00;61.00;;;;;;5077656;28;20024;-80
2022/07/14 09:39:57;;;;;;;5.18;0.50;;;25.20;60.30;;;;;;5076861;28;20361;-80
2022/07/14 09:42:58;;;;;;;4.18;0.85;;;25.10;58.90;;;;;;5076822;28;20027;-80
2022/07/14 09:45:27;;;;;;;5.65;0.80;;;25.20;57.80;;;;;;5043948;28;20391;-80
2022/07/14 09:48:01;;;;;;;3.00;0.60;;;25.20;58.60;;;;;;5076709;28;20028;-80
2022/07/14 09:50:47;;;;;;;4.70;0.50;;;25.20;58.70;;;;;;5076316;28;20399;-80
2022/07/14 09:53:29;;;;;;;4.22;0.50;;;25.30;56.00;;;;;;5076322;28;20028;-80
2022/07/14 09:55:58;;;;;;;4.03;0.60;;;24.90;57.00;;;;;;5076543;28;20021;-80
2022/07/14 09:58:28;;;;;;;3.05;0.20;;;24.70;57.60;;;;;;5075906;28;20430;-80
2022/07/14 10:01:01;;;;;;;3.90;0.30;;;24.70;57.20;;;;;;5076819;28;20031;-80
2022/07/14 10:03:29;;;;;;;3.30;0.57;;;24.70;57.90;;;;;;5076564;28;20064;-79
2022/07/14 10:05:57;;;;;;;3.72;0.43;;;24.70;57.90;;;;;;5076067;28;20029;-80
2022/07/14 10:08:27;;;;;;;3.40;0.43;;;24.80;57.10;;;;;;5075980;28;20500;-80
2022/07/14 10:10:54;;;;;;;1.85;0.20;;;24.70;56.50;;;;;;5075728;28;20032;-80
2022/07/14 10:13:21;;;;;;;9.63;0.60;;;24.70;56.10;;;;;;5075193;28;20028;-80
2022/07/14 10:15:49;;;;;;;2.05;0.30;;;24.90;56.30;;;;;;5075809;28;20048;-80
2022/07/14 10:18:15;;;;;;;4.28;0.40;;;25.10;55.70;;;;;;5075715;28;20095;-80
2022/07/14 10:20:45;;;;;;;3.53;0.60;;;25.40;56.00;;;;;;5075732;28;20495;-80
2022/07/14 10:23:12;;;;;;;2.92;0.20;;;25.50;54.90;;;;;;5075674;28;20025;-80
2022/07/14 10:25:39;;;;;;;2.30;0.25;;;25.60;54.10;;;;;;5075786;28;20027;-80
2022/07/14 10:28:05;;;;;;;3.15;0.40;;;25.70;53.90;;;;;;5075907;28;20099;-80
2022/07/14 10:30:53;;;;;;;3.25;0.32;;;25.90;53.90;;;;;;5075386;28;20444;-80
2022/07/14 10:33:40;;;;;;;3.80;0.35;;;26.00;53.90;;;;;;5075634;28;20055;-81
2022/07/14 10:36:22;;;;;;;4.28;0.40;;;26.10;52.90;;;;;;5075049;28;20021;-80
2022/07/14 10:39:20;;;;;;;1.85;0.30;;;26.30;53.10;;;;;;5075348;28;20122;-80
2022/07/14 10:42:01;;;;;;;2.47;0.25;;;26.30;52.50;;;;;;5075619;28;20039;-79
2022/07/14 10:44:32;;;;;;;2.20;0.30;;;26.40;50.70;;;;;;5075964;28;20016;-80
2022/07/14 10:47:15;;;;;;;3.28;0.40;;;26.50;50.70;;;;;;5075209;28;20062;-80
2022/07/14 10:50:04;;;;;;;3.30;0.80;;;26.50;51.40;;;;;;5074971;28;20028;-79
2022/07/14 10:52:33;;;;;;;5.75;0.50;;;26.80;51.50;;;;;;5069007;28;20123;-80
2022/07/14 10:55:17;;;;;;;3.03;0.40;;;27.00;50.70;;;;;;5075149;28;20421;-80
2022/07/14 11:03:22;;;;;;;4.10;0.43;;;27.10;49.80;;;;;;5074899;28;20025;-80
2022/07/14 11:06:03;;;;;;;3.50;0.43;;;26.90;50.30;;;;;;5074892;28;20028;-80
2022/07/14 11:08:30;;;;;;;2.50;0.45;;;26.80;49.90;;;;;;5075069;28;20437;-80
2022/07/14 11:10:56;;;;;;;2.17;0.20;;;26.70;49.60;;;;;;5073347;28;20090;-76
2022/07/14 11:13:22;;;;;;;3.03;0.30;;;26.60;49.50;;;;;;5072608;28;20502;-73
2022/07/14 11:16:02;;;;;;;3.95;0.73;;;26.50;49.40;;;;;;5072909;28;20082;-73
2022/07/14 11:18:42;;;;;;;2.22;0.63;;;26.40;50.10;;;;;;5069030;28;20059;-75
2022/07/14 11:21:13;;;;;;;3.72;0.30;;;26.30;50.20;;;;;;5072350;28;20024;-74
2022/07/14 11:23:54;;;;;;;5.47;0.73;;;26.20;49.70;;;;;;5072141;28;20082;-75
2022/07/14 11:26:35;;;;;;;5.72;0.40;;;26.10;51.20;;;;;;5072503;28;20036;-77
2022/07/14 11:29:03;;;;;;;4.30;1.05;;;25.90;52.30;;;;;;5073027;28;20044;-74
2022/07/14 11:31:43;;;;;;;4.28;0.45;;;25.90;52.00;;;;;;5072071;28;20375;-75
2022/07/14 11:37:07;;;;;;;3.15;0.40;;;25.90;51.40;;;;;;5071733;28;20071;-73
2022/07/14 11:39:41;;;;;;;3.20;0.40;;;26.00;51.30;;;;;;5072421;28;20017;-73
2022/07/14 11:42:16;;;;;;;3.08;0.30;;;26.00;52.10;;;;;;5071143;28;20069;-76
2022/07/14 11:44:43;;;;;;;2.88;0.20;;;25.80;51.90;;;;;;5071976;28;20039;-75
2022/07/14 11:47:20;;;;;;;3.25;0.40;;;25.80;52.10;;;;;;5072682;28;20024;-78
2022/07/14 11:50:01;;;;;;;3.20;0.32;;;25.90;52.40;;;;;;5071781;28;20056;-78
2022/07/14 11:52:31;;;;;;;1.75;0.20;;;25.90;51.20;;;;;;5070595;28;20029;-78
2022/07/14 11:54:58;;;;;;;3.45;0.30;;;25.80;50.90;;;;;;5072526;28;20095;-77
2022/07/14 11:57:24;;;;;;;3.25;0.38;;;25.90;51.30;;;;;;5071238;28;20016;-78
2022/07/14 11:59:50;;;;;;;6.07;0.38;;;26.00;50.90;;;;;;5070310;28;20043;-77
2022/07/14 12:02:20;;;;;;;3.58;0.55;;;25.90;50.60;;;;;;5071539;28;20024;-78
2022/07/14 12:04:56;;;;;;;4.80;0.43;;;25.80;50.90;;;;;;5072087;28;20391;-77
2022/07/14 12:07:24;;;;;;;2.97;0.40;;;25.70;51.10;;;;;;5072155;28;20017;-75
2022/07/14 12:09:51;;;;;;;2.47;0.30;;;25.50;51.90;;;;;;5072499;28;20036;-76
2022/07/14 12:12:18;;;;;;;3.45;0.22;;;25.50;52.30;;;;;;5071711;28;20037;-77
2022/07/14 12:14:52;;;;;;;6.78;0.40;;;25.60;52.00;;;;;;5071154;28;20066;-77
2022/07/14 12:17:19;;;;;;;5.65;0.43;;;25.60;51.40;;;;;;5071766;28;20052;-77
2022/07/14 12:19:46;;;;;;;4.47;0.93;;;25.70;51.40;;;;;;5071979;28;20078;-76
2022/07/14 12:22:12;;;;;;;4.80;0.85;;;25.70;51.60;;;;;;5071981;28;20036;-76
2022/07/14 12:24:38;;;;;;;2.72;0.30;;;25.90;50.90;;;;;;5071648;28;20021;-76
2022/07/14 12:27:11;;;;;;;4.10;0.40;;;25.90;51.80;;;;;;5072154;28;20077;-76
2022/07/14 12:29:49;;;;;;;2.70;0.30;;;26.00;50.90;;;;;;5071607;28;20605;-75
2022/07/14 12:32:15;;;;;;;2.40;0.73;;;26.10;50.60;;;;;;5071987;28;20203;-75
2022/07/14 12:34:42;;;;;;;2.22;0.30;;;26.10;49.80;;;;;;5071559;28;20107;-77
2022/07/14 12:37:09;;;;;;;15.52;1.52;;;26.00;49.30;;;;;;5071663;28;20025;-76
2022/07/14 12:39:35;;;;;;;19.23;1.85;;;26.00;49.70;;;;;;5071855;28;20021;-77
2022/07/14 12:42:03;;;;;;;3.40;0.70;;;26.10;50.50;;;;;;5071587;28;20024;-77
2022/07/14 12:44:30;;;;;;;1.90;0.30;;;26.20;50.90;;;;;;5071628;28;20031;-76
2022/07/14 12:47:10;;;;;;;3.95;0.22;;;26.30;50.00;;;;;;5071602;28;20033;-76
2022/07/14 12:49:46;;;;;;;3.95;0.35;;;26.30;49.60;;;;;;5071293;28;20029;-76
2022/07/14 12:52:13;;;;;;;3.53;0.40;;;26.40;48.70;;;;;;5069651;28;20039;-75
2022/07/14 12:54:40;;;;;;;1.70;0.30;;;26.50;48.80;;;;;;5069391;28;20019;-76
2022/07/14 12:57:07;;;;;;;3.92;0.40;;;26.70;49.70;;;;;;5069990;28;20108;-76
2022/07/14 12:59:35;;;;;;;3.90;0.30;;;26.90;49.60;;;;;;5070048;28;20099;-76
2022/07/14 13:02:09;;;;;;;2.05;0.30;;;27.10;48.90;;;;;;5070021;28;20040;-75
2022/07/14 13:04:34;;;;;;;5.35;0.22;;;27.20;48.90;;;;;;5071635;28;20110;-91
2022/07/14 13:07:14;;;;;;;3.72;0.38;;;27.20;49.00;;;;;;5071849;28;20471;-84